createdAt,value
2023-03-19T00:00:15.348Z,7.55
2023-03-19T00:07:16.967Z,7.80
2023-03-19T00:14:18.553Z,7.85
2023-03-19T00:21:20.597Z,9.13
2023-03-19T00:28:22.153Z,9.27
2023-03-19T00:35:24.289Z,11.93
2023-03-19T00:42:26.073Z,39.78
2023-03-19T00:49:27.640Z,44.67
2023-03-19T00:56:29.289Z,36.65
2023-03-19T01:03:30.839Z,43.30
2023-03-19T01:10:33.013Z,43.55
2023-03-19T01:17:34.561Z,48.50
2023-03-19T01:24:36.118Z,56.03
2023-03-19T01:31:37.691Z,59.78
2023-03-19T01:38:57.908Z,59.70
2023-03-19T01:46:35.638Z,72.60
2023-03-19T01:54:00.125Z,73.97
2023-03-19T02:01:27.907Z,89.55
2023-03-19T02:08:29.581Z,44.90
2023-03-19T02:15:31.380Z,47.53
2023-03-19T02:22:32.982Z,58.50
2023-03-19T02:29:35.098Z,33.05
2023-03-19T02:36:39.080Z,26.55
2023-03-19T02:43:41.250Z,15.50
2023-03-19T02:50:42.826Z,14.90
2023-03-19T02:57:45.476Z,12.30
2023-03-19T03:04:47.470Z,10.02
2023-03-19T03:11:49.286Z,11.10
2023-03-19T03:18:51.238Z,12.65
2023-03-19T03:25:54.158Z,13.63
2023-03-19T03:32:55.840Z,16.27
2023-03-19T03:39:58.044Z,31.52
2023-03-19T03:46:59.906Z,40.92
2023-03-19T03:54:01.700Z,52.65
2023-03-19T04:01:03.808Z,16.17
2023-03-19T04:08:07.042Z,9.20
2023-03-19T04:15:09.548Z,8.20
2023-03-19T04:22:12.771Z,7.95
2023-03-19T04:29:14.336Z,7.85
2023-03-19T04:36:17.931Z,8.40
2023-03-19T04:43:19.762Z,8.27
2023-03-19T04:50:22.045Z,7.32
2023-03-19T04:57:23.686Z,8.18
2023-03-19T05:04:28.157Z,9.07
2023-03-19T05:11:35.863Z,7.97
2023-03-19T05:18:41.399Z,8.45
2023-03-19T05:25:43.132Z,9.18
2023-03-19T05:32:48.278Z,8.68
2023-03-19T05:40:00.179Z,9.70
2023-03-19T05:47:02.380Z,8.63
2023-03-19T05:54:07.916Z,7.32
2023-03-19T06:01:12.003Z,6.78
2023-03-19T06:08:13.957Z,6.32
2023-03-19T06:15:30.516Z,7.45
2023-03-19T06:29:53.474Z,7.70
2023-03-19T06:37:05.458Z,6.78
2023-03-19T06:44:07.342Z,7.57
2023-03-19T06:51:08.891Z,7.43
2023-03-19T06:58:10.642Z,8.70
2023-03-19T07:05:12.189Z,10.23
2023-03-19T07:12:13.705Z,9.80
2023-03-19T07:19:15.295Z,8.43
2023-03-19T07:26:17.547Z,9.27
2023-03-19T07:33:20.143Z,10.27
2023-03-19T07:40:21.711Z,8.68
2023-03-19T07:47:28.873Z,8.73
2023-03-19T07:54:31.220Z,9.20
2023-03-19T08:01:32.731Z,8.43
2023-03-19T08:08:34.952Z,8.82
2023-03-19T08:15:37.082Z,8.45
2023-03-19T08:22:38.778Z,8.25
2023-03-19T08:29:40.488Z,8.20
2023-03-19T08:36:42.011Z,7.47
2023-03-19T08:43:43.573Z,8.18
2023-03-19T08:50:45.320Z,8.13
2023-03-19T08:57:46.913Z,7.72
2023-03-19T09:04:48.532Z,8.00
2023-03-19T09:11:50.244Z,6.10
2023-03-19T09:18:51.853Z,6.90
2023-03-19T09:25:53.425Z,7.82
2023-03-19T09:32:55.011Z,8.07
2023-03-19T09:39:56.571Z,7.03
2023-03-19T09:47:23.764Z,6.97
2023-03-19T09:54:28.425Z,6.65
2023-03-19T10:01:35.326Z,8.52
2023-03-19T10:08:42.783Z,7.13
2023-03-19T10:15:44.643Z,7.60
2023-03-19T10:22:49.068Z,7.75
2023-03-19T10:29:51.127Z,7.93
2023-03-19T10:36:58.937Z,7.85
2023-03-19T10:44:03.150Z,7.75
2023-03-19T10:51:05.143Z,6.05
2023-03-19T10:58:20.266Z,6.43
2023-03-19T11:05:21.848Z,7.57
2023-03-19T11:12:37.482Z,7.15
2023-03-19T11:19:42.864Z,11.05
2023-03-19T11:26:48.751Z,6.75
2023-03-19T11:34:09.794Z,6.28
2023-03-19T11:41:30.431Z,5.93
2023-03-19T11:48:57.713Z,5.88
2023-03-19T11:56:08.950Z,5.47
2023-03-19T12:03:46.977Z,6.45
2023-03-19T12:11:02.269Z,5.93
2023-03-19T12:18:19.175Z,6.22
2023-03-19T12:25:42.909Z,5.97
2023-03-19T12:33:03.372Z,6.20
2023-03-19T12:40:28.320Z,6.18
2023-03-19T12:47:32.881Z,6.45
2023-03-19T12:54:40.093Z,5.45
2023-03-19T13:01:46.753Z,6.00
2023-03-19T13:09:05.614Z,5.78
2023-03-19T13:16:18.751Z,6.53
2023-03-19T13:23:32.452Z,6.45
2023-03-19T13:30:34.296Z,6.60
2023-03-19T13:37:36.124Z,6.45
2023-03-19T13:45:16.695Z,6.45
2023-03-19T13:52:18.228Z,6.13
2023-03-19T13:59:36.349Z,6.13
2023-03-19T14:06:42.545Z,5.72
2023-03-19T14:13:47.694Z,4.88
2023-03-19T14:21:01.516Z,5.45
2023-03-19T14:28:03.514Z,7.82
2023-03-19T14:35:05.745Z,5.35
2023-03-19T14:42:11.925Z,4.97
2023-03-19T14:49:38.298Z,4.50
2023-03-19T14:56:40.276Z,3.88
2023-03-19T15:03:42.460Z,4.72
2023-03-19T15:11:11.398Z,5.25
2023-03-19T15:18:13.135Z,4.97
2023-03-19T15:25:14.919Z,5.32
2023-03-19T15:32:49.718Z,4.90
2023-03-19T15:39:55.453Z,5.13
2023-03-19T15:46:57.042Z,5.40
2023-03-19T15:53:59.491Z,5.28
2023-03-19T16:01:01.164Z,6.63
2023-03-19T16:08:30.416Z,4.88
2023-03-19T16:15:42.602Z,5.60
2023-03-19T16:22:51.859Z,5.47
2023-03-19T16:29:57.393Z,5.50
2023-03-19T16:36:58.960Z,4.90
2023-03-19T16:44:16.071Z,5.80
2023-03-19T16:51:18.537Z,6.35
2023-03-19T16:58:31.614Z,6.40
2023-03-19T17:05:33.483Z,7.80
2023-03-19T17:12:35.105Z,7.32
2023-03-19T17:19:36.827Z,7.22
2023-03-19T17:26:38.426Z,6.90
2023-03-19T17:33:40.047Z,7.13
2023-03-19T17:40:41.816Z,8.10
2023-03-19T17:47:46.197Z,7.82
2023-03-19T17:54:47.884Z,9.13
2023-03-19T18:01:49.626Z,8.90
2023-03-19T18:08:51.349Z,7.82
2023-03-19T18:15:52.945Z,9.32
2023-03-19T18:22:54.736Z,9.65
2023-03-19T18:29:56.305Z,9.52
2023-03-19T18:36:59.050Z,10.13
2023-03-19T18:44:00.616Z,9.38
2023-03-19T18:51:02.196Z,10.23
2023-03-19T18:58:03.755Z,9.88
2023-03-19T19:05:05.654Z,9.85
2023-03-19T19:12:09.452Z,9.52
2023-03-19T19:19:16.395Z,8.52
2023-03-19T19:26:23.997Z,8.15
2023-03-19T19:33:28.223Z,8.25
2023-03-19T19:40:31.137Z,7.80
2023-03-19T19:47:34.663Z,6.43
2023-03-19T19:54:36.223Z,5.65
2023-03-19T20:01:37.922Z,5.88
2023-03-19T20:08:40.137Z,5.68
2023-03-19T20:15:41.743Z,5.20
2023-03-19T20:22:43.794Z,5.82
2023-03-19T20:29:45.569Z,5.88
2023-03-19T20:36:47.727Z,6.95
2023-03-19T20:43:50.360Z,6.13
2023-03-19T20:50:52.328Z,6.53
2023-03-19T20:57:54.469Z,5.72
2023-03-19T21:04:56.789Z,6.10
2023-03-19T21:11:58.484Z,5.68
2023-03-19T21:19:00.500Z,5.32
2023-03-19T21:26:23.072Z,5.20
2023-03-19T21:33:27.025Z,5.90
2023-03-19T21:40:29.865Z,5.32
2023-03-19T21:47:31.491Z,4.95
2023-03-19T21:54:33.201Z,4.88
2023-03-19T22:01:34.749Z,4.60
2023-03-19T22:08:36.635Z,4.88
2023-03-19T22:15:38.448Z,5.20
2023-03-19T22:22:40.016Z,4.80
2023-03-19T22:29:41.591Z,4.68
2023-03-19T22:36:43.293Z,4.05
2023-03-19T22:43:45.027Z,4.78
2023-03-19T22:50:46.618Z,4.65
2023-03-19T22:57:48.624Z,5.07
2023-03-19T23:04:50.332Z,4.63
2023-03-19T23:11:52.588Z,5.45
2023-03-19T23:25:55.932Z,4.38
2023-03-19T23:32:59.833Z,3.92
2023-03-19T23:40:01.679Z,4.50
2023-03-19T23:47:03.666Z,3.58
2023-03-19T23:54:22.314Z,3.38
